Time;durP1;ratioP1;P1;durP2;ratioP2;P2;SDS_P1;SDS_P2;PMS_P1;PMS_P2;Temp;Humidity;BMP_temperature;BMP_pressure;BME280_temperature;BME280_humidity;BME280_pressure;Samples;Min_cycle;Max_cycle;Signal;HPM_P1;HPM_P2
2022/01/12 00:02:12;;;;;;;35.90;16.40;;;;;;;;;;5035377;28;20198;-71
2022/01/12 00:04:37;;;;;;;36.10;16.90;;;;;;;;;;5043237;28;20510;-71
2022/01/12 00:07:02;;;;;;;38.33;17.10;;;;;;;;;;5040245;28;20561;-71
2022/01/12 00:09:28;;;;;;;37.20;17.00;;;;;;;;;;5044270;28;20209;-71
2022/01/12 00:11:53;;;;;;;38.90;17.07;;;;;;;;;;5040453;28;20343;-71
2022/01/12 00:14:19;;;;;;;38.10;17.33;;;;;;;;;;5042035;28;20209;-71
2022/01/12 00:16:48;;;;;;;38.73;17.60;;;;;;;;;;5038591;28;20749;-71
2022/01/12 00:19:13;;;;;;;36.03;17.23;;;;;;;;;;5043532;28;20259;-71
2022/01/12 00:21:39;;;;;;;37.83;16.17;;;;;;;;;;5041100;28;20190;-72
2022/01/12 00:24:04;;;;;;;37.07;16.40;;;;;;;;;;5040935;28;20611;-73
2022/01/12 00:34:28;;;;;;;44.27;18.20;;;;;;;;;;5019583;28;20486;-73
2022/01/12 00:36:54;;;;;;;39.53;17.73;;;;;;;;;;5036846;28;20388;-72
2022/01/12 00:39:19;;;;;;;37.53;17.47;;;;;;;;;;5045634;28;20189;-72
2022/01/12 00:41:45;;;;;;;45.53;18.90;;;;;;;;;;5040287;28;20201;-75
2022/01/12 00:44:21;;;;;;;37.13;18.03;;;;;;;;;;5043915;28;20193;-75
2022/01/12 00:46:46;;;;;;;34.93;17.73;;;;;;;;;;5043994;28;20186;-75
2022/01/12 00:49:12;;;;;;;42.53;19.43;;;;;;;;;;5038623;28;20182;-74
2022/01/12 00:51:37;;;;;;;41.60;18.60;;;;;;;;;;5041403;28;20186;-74
2022/01/12 00:54:04;;;;;;;37.07;18.37;;;;;;;;;;5046752;28;20212;-75
2022/01/12 00:56:30;;;;;;;40.70;19.97;;;;;;;;;;5044419;28;20268;-75
2022/01/12 00:58:55;;;;;;;39.87;18.67;;;;;;;;;;5038528;28;20261;-75
2022/01/12 01:01:22;;;;;;;43.50;19.93;;;;;;;;;;5045243;28;20236;-76
2022/01/12 01:03:49;;;;;;;40.87;18.43;;;;;;;;;;5043791;28;20621;-75
2022/01/12 01:06:16;;;;;;;36.30;17.50;;;;;;;;;;5043746;28;20613;-75
2022/01/12 01:08:43;;;;;;;34.03;18.80;;;;;;;;;;5044109;28;20185;-75
2022/01/12 01:11:09;;;;;;;37.43;18.57;;;;;;;;;;5044269;28;20247;-72
2022/01/12 01:13:42;;;;;;;36.03;19.27;;;;;;;;;;5043824;28;20280;-72
2022/01/12 01:26:46;;;;;;;45.63;20.27;;;;;;;;;;5044588;28;20239;-72
2022/01/12 01:29:12;;;;;;;37.40;18.77;;;;;;;;;;5044697;28;20185;-72
2022/01/12 01:31:38;;;;;;;38.50;19.37;;;;;;;;;;5044023;28;20249;-72
2022/01/12 01:34:08;;;;;;;42.23;20.03;;;;;;;;;;5038030;28;20656;-72
2022/01/12 01:36:36;;;;;;;40.63;21.67;;;;;;;;;;5042996;28;20269;-72
2022/01/12 01:39:03;;;;;;;40.40;20.67;;;;;;;;;;5041611;28;20198;-71
2022/01/12 01:41:29;;;;;;;42.70;21.47;;;;;;;;;;5043364;28;20190;-71
2022/01/12 01:54:53;;;;;;;36.47;19.57;;;;;;;;;;5042089;28;20290;-71
2022/01/12 01:57:19;;;;;;;38.47;20.30;;;;;;;;;;5042531;28;20457;-71
2022/01/12 01:59:45;;;;;;;45.10;22.10;;;;;;;;;;5036559;28;20204;-71
2022/01/12 02:02:11;;;;;;;40.73;21.43;;;;;;;;;;5043864;28;20193;-71
2022/01/12 02:04:37;;;;;;;45.77;21.70;;;;;;;;;;5044394;28;20223;-71
2022/01/12 02:07:03;;;;;;;38.97;20.63;;;;;;;;;;5043949;28;20197;-71
2022/01/12 02:09:28;;;;;;;43.50;21.07;;;;;;;;;;5046781;28;20189;-71
2022/01/12 02:11:53;;;;;;;46.17;20.87;;;;;;;;;;5040812;28;20182;-70
2022/01/12 02:14:20;;;;;;;41.00;21.33;;;;;;;;;;5042658;28;20828;-71
2022/01/12 02:17:10;;;;;;;40.80;21.63;;;;;;;;;;5042361;28;20640;-71
2022/01/12 02:36:15;;;;;;;41.03;21.00;;;;;;;;;;5043780;28;20251;-70
2022/01/12 02:41:24;;;;;;;46.90;21.27;;;;;;;;;;5044984;28;20262;-70
2022/01/12 02:54:52;;;;;;;45.00;22.60;;;;;;;;;;5038708;28;20354;-70
2022/01/12 02:57:18;;;;;;;45.90;24.07;;;;;;;;;;5037886;28;20191;-69
2022/01/12 03:07:25;;;;;;;45.77;24.23;;;;;;;;;;5038697;28;20281;-69
2022/01/12 03:09:50;;;;;;;47.00;22.93;;;;;;;;;;5048071;28;20800;-69
2022/01/12 03:12:16;;;;;;;59.10;24.03;;;;;;;;;;5041824;28;20624;-69
2022/01/12 03:14:42;;;;;;;49.07;23.67;;;;;;;;;;5036648;28;20201;-70
2022/01/12 03:17:07;;;;;;;47.83;24.27;;;;;;;;;;5037518;28;20201;-72
2022/01/12 03:19:32;;;;;;;48.40;23.83;;;;;;;;;;5035510;28;20181;-72
2022/01/12 03:21:58;;;;;;;51.70;24.27;;;;;;;;;;5040705;28;20201;-75
2022/01/12 03:24:23;;;;;;;44.60;22.53;;;;;;;;;;5042934;28;20212;-75
2022/01/12 03:26:48;;;;;;;46.10;22.87;;;;;;;;;;5042623;28;20196;-76
2022/01/12 03:29:16;;;;;;;41.97;23.00;;;;;;;;;;5039556;28;20200;-75
2022/01/12 03:31:41;;;;;;;45.20;23.20;;;;;;;;;;5042433;28;20204;-76
2022/01/12 03:34:22;;;;;;;45.50;23.90;;;;;;;;;;5033188;28;20200;-75
2022/01/12 03:37:17;;;;;;;43.67;23.37;;;;;;;;;;5039277;28;20223;-73
2022/01/12 03:39:40;;;;;;;50.07;23.97;;;;;;;;;;5040899;28;20197;-72
2022/01/12 03:42:05;;;;;;;46.33;23.67;;;;;;;;;;5041137;28;20193;-72
2022/01/12 03:44:31;;;;;;;41.27;22.23;;;;;;;;;;5040108;28;20207;-71
2022/01/12 03:46:56;;;;;;;46.17;22.47;;;;;;;;;;5038988;28;20197;-72
2022/01/12 03:49:22;;;;;;;41.27;23.73;;;;;;;;;;5042258;28;20189;-72
2022/01/12 03:51:48;;;;;;;47.07;24.13;;;;;;;;;;5039947;28;20540;-72
2022/01/12 03:54:14;;;;;;;48.30;23.70;;;;;;;;;;5043067;28;20189;-72
2022/01/12 03:56:40;;;;;;;46.03;23.63;;;;;;;;;;5040463;28;20199;-72
2022/01/12 03:59:06;;;;;;;38.90;21.97;;;;;;;;;;5040111;28;20535;-72
2022/01/12 04:01:32;;;;;;;49.00;23.27;;;;;;;;;;5041775;28;20729;-71
2022/01/12 04:04:01;;;;;;;43.57;23.73;;;;;;;;;;5042170;28;20306;-72
2022/01/12 04:09:11;;;;;;;45.07;24.13;;;;;;;;;;5042270;28;20287;-71
2022/01/12 04:11:36;;;;;;;44.50;25.03;;;;;;;;;;5042023;28;20181;-70
2022/01/12 04:14:03;;;;;;;42.47;24.27;;;;;;;;;;5047327;28;20255;-70
2022/01/12 04:16:28;;;;;;;43.57;24.40;;;;;;;;;;5042273;28;20300;-71
2022/01/12 04:18:53;;;;;;;51.00;25.60;;;;;;;;;;5047111;28;20215;-71
2022/01/12 04:21:26;;;;;;;49.90;25.20;;;;;;;;;;5046477;28;20250;-71
2022/01/12 04:23:51;;;;;;;49.90;23.80;;;;;;;;;;5044630;28;20632;-70
2022/01/12 04:26:17;;;;;;;45.80;24.73;;;;;;;;;;5045921;28;20186;-71
2022/01/12 04:28:43;;;;;;;46.33;25.53;;;;;;;;;;5039430;28;20559;-70
2022/01/12 04:31:10;;;;;;;45.47;24.90;;;;;;;;;;5045195;28;20774;-70
2022/01/12 04:33:36;;;;;;;53.43;25.57;;;;;;;;;;5041996;28;20280;-70
2022/01/12 04:36:03;;;;;;;50.23;25.30;;;;;;;;;;5046812;28;20653;-70
2022/01/12 04:38:30;;;;;;;49.03;25.50;;;;;;;;;;5059736;28;20197;-70
2022/01/12 04:40:56;;;;;;;46.87;25.57;;;;;;;;;;5046272;28;20189;-69
2022/01/12 04:43:24;;;;;;;53.67;26.00;;;;;;;;;;5040058;28;20271;-70
2022/01/12 04:50:42;;;;;;;51.60;25.43;;;;;;;;;;5046673;28;20636;-70
2022/01/12 04:53:07;;;;;;;57.27;27.63;;;;;;;;;;5032373;28;20660;-70
2022/01/12 04:55:33;;;;;;;54.77;26.03;;;;;;;;;;5046041;28;20217;-69
2022/01/12 04:57:58;;;;;;;57.20;26.73;;;;;;;;;;5042961;28;20280;-69
2022/01/12 05:00:26;;;;;;;54.40;27.87;;;;;;;;;;5046088;28;20230;-69
2022/01/12 05:13:43;;;;;;;67.17;27.87;;;;;;;;;;5038573;28;20207;-69
2022/01/12 05:16:12;;;;;;;77.00;29.17;;;;;;;;;;5040503;28;20245;-69
2022/01/12 05:18:39;;;;;;;71.87;29.00;;;;;;;;;;5045730;28;20207;-70
2022/01/12 05:21:05;;;;;;;80.53;29.67;;;;;;;;;;5042173;28;20265;-70
2022/01/12 05:23:31;;;;;;;67.80;28.87;;;;;;;;;;5042503;28;20787;-70
2022/01/12 05:25:57;;;;;;;78.77;30.17;;;;;;;;;;5045517;28;20208;-70
2022/01/12 05:28:24;;;;;;;75.57;28.27;;;;;;;;;;5044362;28;20189;-70
2022/01/12 05:30:50;;;;;;;75.63;28.30;;;;;;;;;;5043145;28;20201;-70
2022/01/12 05:33:16;;;;;;;87.70;30.67;;;;;;;;;;5042591;28;20596;-70
2022/01/12 05:35:43;;;;;;;84.03;31.10;;;;;;;;;;5042756;28;20284;-69
2022/01/12 05:38:11;;;;;;;80.53;29.50;;;;;;;;;;5044694;28;20597;-68
2022/01/12 05:40:37;;;;;;;99.80;30.50;;;;;;;;;;5044934;28;20193;-68
2022/01/12 05:43:02;;;;;;;76.13;30.30;;;;;;;;;;5047574;28;20262;-69
2022/01/12 05:45:32;;;;;;;113.07;32.10;;;;;;;;;;5042328;28;20190;-69
2022/01/12 05:50:24;;;;;;;127.90;32.60;;;;;;;;;;5046454;28;20189;-69
2022/01/12 05:52:50;;;;;;;104.57;32.30;;;;;;;;;;5041472;28;20388;-69
2022/01/12 05:55:15;;;;;;;102.93;31.57;;;;;;;;;;5045501;28;20288;-68
2022/01/12 05:57:41;;;;;;;131.63;33.00;;;;;;;;;;5040886;28;20594;-69
2022/01/12 06:00:10;;;;;;;115.83;33.03;;;;;;;;;;5042489;28;20715;-69
2022/01/12 06:02:36;;;;;;;148.23;34.50;;;;;;;;;;5038874;28;20559;-69
2022/01/12 06:05:02;;;;;;;175.70;35.63;;;;;;;;;;5042632;28;20399;-69
2022/01/12 06:07:28;;;;;;;171.70;34.30;;;;;;;;;;5043061;28;20189;-69
2022/01/12 06:09:53;;;;;;;143.73;33.13;;;;;;;;;;5039899;28;20279;-69
2022/01/12 06:12:19;;;;;;;119.10;33.50;;;;;;;;;;5047925;28;20192;-69
2022/01/12 06:14:44;;;;;;;165.80;36.60;;;;;;;;;;5038084;28;20273;-70
2022/01/12 06:17:11;;;;;;;132.60;34.20;;;;;;;;;;5043158;28;20288;-69
2022/01/12 06:19:36;;;;;;;159.97;35.60;;;;;;;;;;5046695;28;20219;-69
2022/01/12 06:22:02;;;;;;;141.63;35.37;;;;;;;;;;5038428;28;20181;-69
2022/01/12 06:24:28;;;;;;;177.90;36.83;;;;;;;;;;5041687;28;20254;-69
2022/01/12 06:26:55;;;;;;;147.17;34.83;;;;;;;;;;5042882;28;20178;-70
2022/01/12 06:31:49;;;;;;;131.30;33.17;;;;;;;;;;5041641;28;20217;-69
2022/01/12 06:34:15;;;;;;;112.33;32.63;;;;;;;;;;5041381;28;20667;-69
2022/01/12 06:36:41;;;;;;;141.13;35.50;;;;;;;;;;5042321;28;20193;-69
2022/01/12 06:39:09;;;;;;;116.23;32.70;;;;;;;;;;5043755;28;20528;-68
2022/01/12 06:41:38;;;;;;;121.13;32.77;;;;;;;;;;5044029;28;20189;-68
2022/01/12 06:44:05;;;;;;;94.90;31.97;;;;;;;;;;5039412;28;20554;-68
2022/01/12 06:46:31;;;;;;;91.43;32.60;;;;;;;;;;5040707;28;20185;-68
2022/01/12 06:48:58;;;;;;;102.30;32.73;;;;;;;;;;5037722;28;20189;-68
2022/01/12 06:51:23;;;;;;;93.33;32.40;;;;;;;;;;5043792;28;20185;-69
2022/01/12 06:53:49;;;;;;;104.53;33.97;;;;;;;;;;5039920;28;20195;-68
2022/01/12 06:56:17;;;;;;;96.17;31.33;;;;;;;;;;5042911;28;20210;-69
2022/01/12 06:58:43;;;;;;;97.57;29.93;;;;;;;;;;5041862;28;20683;-68
2022/01/12 07:01:09;;;;;;;83.67;29.57;;;;;;;;;;5039460;28;20260;-69
2022/01/12 07:03:35;;;;;;;95.60;31.37;;;;;;;;;;5038184;28;20668;-69
2022/01/12 07:06:00;;;;;;;90.40;29.07;;;;;;;;;;4343831;28;10000716;-68
2022/01/12 07:08:25;;;;;;;94.70;30.43;;;;;;;;;;5034712;28;20200;-68
2022/01/12 07:10:51;;;;;;;117.67;32.03;;;;;;;;;;5038062;28;20658;-69
2022/01/12 07:13:16;;;;;;;106.97;33.37;;;;;;;;;;5039159;28;20182;-69
2022/01/12 07:15:43;;;;;;;97.43;29.80;;;;;;;;;;5036500;28;20379;-69
2022/01/12 07:18:08;;;;;;;79.77;29.57;;;;;;;;;;5036949;28;20254;-69
2022/01/12 07:20:34;;;;;;;84.57;31.10;;;;;;;;;;5041474;28;20553;-69
2022/01/12 07:22:59;;;;;;;91.27;29.53;;;;;;;;;;5040209;28;20192;-69
2022/01/12 07:25:25;;;;;;;92.17;32.00;;;;;;;;;;5037178;28;20531;-69
2022/01/12 07:27:51;;;;;;;90.83;31.50;;;;;;;;;;5041794;28;20609;-69
2022/01/12 07:30:16;;;;;;;79.73;31.97;;;;;;;;;;5037901;28;20205;-69
2022/01/12 07:32:42;;;;;;;86.83;32.40;;;;;;;;;;5039022;28;20367;-69
2022/01/12 07:35:07;;;;;;;90.07;32.30;;;;;;;;;;5037116;28;20190;-69
2022/01/12 07:37:33;;;;;;;88.40;32.30;;;;;;;;;;5040421;28;20291;-68
2022/01/12 07:39:59;;;;;;;89.17;33.33;;;;;;;;;;5035656;28;20284;-68
2022/01/12 07:42:24;;;;;;;80.17;31.23;;;;;;;;;;5042548;28;20189;-69
2022/01/12 07:44:58;;;;;;;80.83;30.80;;;;;;;;;;5039492;28;20727;-68
2022/01/12 07:47:23;;;;;;;87.37;31.93;;;;;;;;;;5046115;28;20185;-68
2022/01/12 07:49:48;;;;;;;87.17;31.40;;;;;;;;;;5045545;28;20180;-68
2022/01/12 07:52:14;;;;;;;81.33;30.77;;;;;;;;;;5048248;28;20267;-68
2022/01/12 07:54:39;;;;;;;95.83;31.77;;;;;;;;;;5044330;28;20200;-69
2022/01/12 07:57:04;;;;;;;83.80;29.37;;;;;;;;;;5046335;28;20204;-68
2022/01/12 07:59:30;;;;;;;71.80;28.13;;;;;;;;;;5046544;28;20196;-68
2022/01/12 08:01:55;;;;;;;90.07;29.03;;;;;;;;;;5044989;28;20282;-68
2022/01/12 08:04:20;;;;;;;73.43;29.03;;;;;;;;;;5044297;28;20585;-69
2022/01/12 08:06:46;;;;;;;81.03;28.53;;;;;;;;;;5051394;28;20177;-69
2022/01/12 08:09:11;;;;;;;75.33;29.17;;;;;;;;;;5048678;28;20292;-69
2022/01/12 08:11:36;;;;;;;70.93;27.70;;;;;;;;;;5043761;28;20226;-69
2022/01/12 08:14:02;;;;;;;83.57;30.33;;;;;;;;;;5049026;28;20184;-69
2022/01/12 08:16:27;;;;;;;80.27;29.13;;;;;;;;;;5046731;28;20292;-69
2022/01/12 08:18:53;;;;;;;73.83;27.73;;;;;;;;;;5049036;28;20616;-69
2022/01/12 08:21:19;;;;;;;74.30;27.33;;;;;;;;;;5044402;28;20238;-69
2022/01/12 08:23:44;;;;;;;74.20;27.37;;;;;;;;;;5048437;28;20197;-68
2022/01/12 08:26:09;;;;;;;65.60;24.70;;;;;;;;;;5043141;28;20177;-68
2022/01/12 08:28:35;;;;;;;60.03;22.37;;;;;;;;;;5048921;28;20734;-68
2022/01/12 08:31:00;;;;;;;63.63;22.73;;;;;;;;;;5044755;28;20206;-68
2022/01/12 08:33:26;;;;;;;66.13;23.90;;;;;;;;;;5044475;28;20603;-68
2022/01/12 08:35:52;;;;;;;66.03;25.37;;;;;;;;;;5045137;28;20224;-69
2022/01/12 08:38:17;;;;;;;68.30;26.53;;;;;;;;;;5050325;28;20644;-69
2022/01/12 08:40:42;;;;;;;70.63;28.03;;;;;;;;;;5041646;28;20185;-69
2022/01/12 08:43:08;;;;;;;65.13;25.40;;;;;;;;;;5046935;28;20185;-68
2022/01/12 08:45:34;;;;;;;73.23;27.33;;;;;;;;;;5046626;28;20186;-68
2022/01/12 08:47:59;;;;;;;67.67;25.90;;;;;;;;;;5048183;28;20194;-68
2022/01/12 08:50:24;;;;;;;69.47;26.30;;;;;;;;;;5047553;28;20540;-68
2022/01/12 08:52:50;;;;;;;61.73;24.03;;;;;;;;;;5046176;28;20182;-69
2022/01/12 08:55:20;;;;;;;56.77;23.47;;;;;;;;;;5048389;28;20247;-69
2022/01/12 08:57:46;;;;;;;58.60;22.77;;;;;;;;;;5045725;28;20456;-68
2022/01/12 09:00:12;;;;;;;53.10;22.23;;;;;;;;;;5045089;28;20332;-69
2022/01/12 09:02:37;;;;;;;52.17;22.63;;;;;;;;;;5045714;28;20186;-68
2022/01/12 09:05:04;;;;;;;55.37;23.00;;;;;;;;;;5045689;28;20239;-69
2022/01/12 09:07:30;;;;;;;56.80;21.30;;;;;;;;;;5045118;28;20186;-69
2022/01/12 09:09:55;;;;;;;45.93;20.93;;;;;;;;;;5045467;28;20192;-68
2022/01/12 09:12:21;;;;;;;47.23;20.73;;;;;;;;;;5043020;28;20178;-70
2022/01/12 09:14:46;;;;;;;53.23;22.07;;;;;;;;;;5042944;28;20198;-68
2022/01/12 09:17:18;;;;;;;47.37;21.03;;;;;;;;;;5042517;28;20189;-68
2022/01/12 09:19:45;;;;;;;45.73;19.90;;;;;;;;;;5044686;28;20694;-68
2022/01/12 09:22:10;;;;;;;42.80;19.90;;;;;;;;;;5042699;28;20185;-68
2022/01/12 09:24:36;;;;;;;47.57;18.80;;;;;;;;;;5042310;28;20196;-68
2022/01/12 09:27:01;;;;;;;49.27;20.47;;;;;;;;;;5045798;28;20210;-68
2022/01/12 09:29:27;;;;;;;46.87;20.30;;;;;;;;;;5045724;28;20555;-68
2022/01/12 09:31:52;;;;;;;49.50;20.43;;;;;;;;;;5047884;28;20612;-67
2022/01/12 09:34:17;;;;;;;49.27;21.07;;;;;;;;;;5044180;28;20196;-68
2022/01/12 09:36:43;;;;;;;54.10;21.03;;;;;;;;;;5046851;28;20415;-68
2022/01/12 09:39:08;;;;;;;51.03;20.43;;;;;;;;;;5041770;28;20209;-68
2022/01/12 09:41:34;;;;;;;48.87;20.70;;;;;;;;;;5045493;28;20181;-68
2022/01/12 09:44:00;;;;;;;55.53;21.23;;;;;;;;;;5043618;28;20218;-68
2022/01/12 09:46:26;;;;;;;47.03;20.83;;;;;;;;;;5046669;28;20417;-68
2022/01/12 09:48:53;;;;;;;45.40;20.13;;;;;;;;;;5042374;28;20418;-68
2022/01/12 09:51:18;;;;;;;50.93;20.20;;;;;;;;;;5045569;28;20247;-67
2022/01/12 09:53:44;;;;;;;41.40;17.00;;;;;;;;;;5045747;28;20260;-68
2022/01/12 09:56:18;;;;;;;44.07;17.90;;;;;;;;;;5042887;28;20221;-68
2022/01/12 09:58:44;;;;;;;40.17;17.90;;;;;;;;;;5047756;28;20567;-68
2022/01/12 10:01:10;;;;;;;46.37;18.43;;;;;;;;;;5042032;28;20225;-68
2022/01/12 10:03:36;;;;;;;43.70;17.43;;;;;;;;;;5045669;28;20186;-68
2022/01/12 10:06:15;;;;;;;39.23;18.03;;;;;;;;;;5044439;28;20178;-68
2022/01/12 10:08:41;;;;;;;38.53;17.00;;;;;;;;;;5046275;28;20700;-68
2022/01/12 10:11:12;;;;;;;38.63;18.13;;;;;;;;;;5042217;28;20208;-68
2022/01/12 10:13:40;;;;;;;44.43;16.80;;;;;;;;;;5046462;28;20185;-68
2022/01/12 10:16:16;;;;;;;47.43;18.80;;;;;;;;;;5042639;28;20288;-68
2022/01/12 10:18:47;;;;;;;38.53;17.33;;;;;;;;;;5046016;28;20217;-68
2022/01/12 10:21:28;;;;;;;39.03;15.30;;;;;;;;;;5042009;28;20185;-69
2022/01/12 10:24:00;;;;;;;35.53;14.23;;;;;;;;;;5042641;28;20178;-68
2022/01/12 10:26:34;;;;;;;36.03;12.93;;;;;;;;;;5044015;28;20313;-69
2022/01/12 10:29:05;;;;;;;33.00;12.50;;;;;;;;;;5042470;28;20242;-69
2022/01/12 10:31:45;;;;;;;34.37;13.30;;;;;;;;;;5044255;28;20294;-69
2022/01/12 10:34:10;;;;;;;32.97;14.07;;;;;;;;;;5041823;28;20178;-69
2022/01/12 10:36:40;;;;;;;38.40;13.87;;;;;;;;;;5046565;28;21232;-68
2022/01/12 10:39:08;;;;;;;32.10;13.20;;;;;;;;;;5040511;28;20186;-69
2022/01/12 10:41:33;;;;;;;39.97;13.47;;;;;;;;;;5047613;28;20181;-69
2022/01/12 10:43:59;;;;;;;33.03;13.43;;;;;;;;;;5042043;28;20561;-69
2022/01/12 10:46:26;;;;;;;34.00;13.53;;;;;;;;;;5043263;28;20193;-69
2022/01/12 10:48:54;;;;;;;35.03;12.93;;;;;;;;;;5043911;28;20386;-69
2022/01/12 10:51:26;;;;;;;36.93;11.13;;;;;;;;;;5036081;28;20221;-68
2022/01/12 10:53:54;;;;;;;27.70;10.27;;;;;;;;;;5039477;28;20185;-68
2022/01/12 10:56:22;;;;;;;32.33;8.93;;;;;;;;;;5039883;28;20205;-68
2022/01/12 10:58:50;;;;;;;29.37;9.20;;;;;;;;;;5042786;28;20221;-68
2022/01/12 11:01:18;;;;;;;26.97;9.43;;;;;;;;;;5041005;28;20728;-68
2022/01/12 11:03:45;;;;;;;25.30;8.73;;;;;;;;;;5044767;28;20220;-68
2022/01/12 11:06:11;;;;;;;26.70;9.73;;;;;;;;;;5041299;28;20177;-68
2022/01/12 11:08:39;;;;;;;28.97;9.73;;;;;;;;;;5043717;28;20185;-68
2022/01/12 11:11:05;;;;;;;25.10;8.47;;;;;;;;;;5039932;28;20189;-68
2022/01/12 11:13:32;;;;;;;27.87;9.33;;;;;;;;;;5043300;28;20243;-68
2022/01/12 11:15:57;;;;;;;22.10;8.43;;;;;;;;;;5038809;28;20193;-68
2022/01/12 11:18:26;;;;;;;23.10;7.60;;;;;;;;;;5045678;28;20208;-68
2022/01/12 11:20:56;;;;;;;22.57;8.10;;;;;;;;;;5041859;28;20256;-68
2022/01/12 11:23:33;;;;;;;17.77;7.03;;;;;;;;;;5043857;28;20601;-68
2022/01/12 11:25:58;;;;;;;22.97;7.10;;;;;;;;;;5044271;28;20166;-68
2022/01/12 11:28:26;;;;;;;18.30;6.47;;;;;;;;;;5043339;28;20182;-68
2022/01/12 11:30:51;;;;;;;17.60;7.03;;;;;;;;;;5039000;28;20655;-68
2022/01/12 11:33:40;;;;;;;22.30;7.50;;;;;;;;;;5043614;28;20185;-69
2022/01/12 11:36:12;;;;;;;18.50;6.20;;;;;;;;;;5040661;28;20685;-68
2022/01/12 11:38:38;;;;;;;20.67;6.30;;;;;;;;;;5043239;28;20169;-68
2022/01/12 11:41:34;;;;;;;23.47;6.60;;;;;;;;;;5043529;28;20193;-68
2022/01/12 11:44:08;;;;;;;16.83;7.20;;;;;;;;;;5042840;28;20212;-68
2022/01/12 11:46:53;;;;;;;20.90;6.60;;;;;;;;;;5041970;28;20220;-68
2022/01/12 11:49:31;;;;;;;21.40;7.00;;;;;;;;;;5043028;28;20189;-67
2022/01/12 11:51:59;;;;;;;22.47;7.67;;;;;;;;;;5041287;28;20283;-68
2022/01/12 11:54:36;;;;;;;21.73;8.57;;;;;;;;;;5042961;28;20192;-68
2022/01/12 11:57:10;;;;;;;24.07;8.20;;;;;;;;;;5039385;28;20257;-68
2022/01/12 11:59:54;;;;;;;24.17;7.90;;;;;;;;;;5043726;28;20563;-68
2022/01/12 12:02:31;;;;;;;28.20;8.60;;;;;;;;;;5040377;28;20243;-68
2022/01/12 12:05:00;;;;;;;26.63;10.07;;;;;;;;;;5040475;28;20243;-68
2022/01/12 12:07:26;;;;;;;26.97;9.50;;;;;;;;;;5045187;28;20677;-68
2022/01/12 12:09:57;;;;;;;33.33;9.97;;;;;;;;;;5043424;28;20281;-69
2022/01/12 12:12:26;;;;;;;28.03;9.53;;;;;;;;;;5042672;28;20185;-68
2022/01/12 12:14:54;;;;;;;33.43;10.80;;;;;;;;;;5041526;28;20987;-68
2022/01/12 12:17:23;;;;;;;30.00;10.43;;;;;;;;;;5040131;28;20289;-68
2022/01/12 12:19:49;;;;;;;29.70;9.97;;;;;;;;;;5041708;28;20191;-68
2022/01/12 12:22:19;;;;;;;27.10;9.33;;;;;;;;;;5039491;28;20629;-68
2022/01/12 12:24:47;;;;;;;26.47;9.73;;;;;;;;;;5041444;28;20656;-68
2022/01/12 12:27:18;;;;;;;31.80;11.10;;;;;;;;;;5040410;28;20628;-68
2022/01/12 12:29:44;;;;;;;29.50;10.30;;;;;;;;;;5040276;28;20739;-68
2022/01/12 12:32:13;;;;;;;26.83;10.20;;;;;;;;;;5044499;28;20235;-68
2022/01/12 12:34:39;;;;;;;27.20;10.67;;;;;;;;;;5044914;28;20684;-68
2022/01/12 12:37:08;;;;;;;23.87;9.70;;;;;;;;;;5046125;28;20193;-68
2022/01/12 12:39:36;;;;;;;28.77;9.50;;;;;;;;;;5046960;28;20181;-68
2022/01/12 12:42:04;;;;;;;25.97;10.90;;;;;;;;;;5048002;28;20185;-68
2022/01/12 12:44:32;;;;;;;26.30;9.83;;;;;;;;;;5048190;28;20644;-68
2022/01/12 12:47:15;;;;;;;33.80;11.53;;;;;;;;;;5045460;28;20178;-68
2022/01/12 12:49:53;;;;;;;27.20;10.77;;;;;;;;;;5048338;28;20252;-67
2022/01/12 12:52:32;;;;;;;28.93;11.57;;;;;;;;;;5046840;28;20480;-67
2022/01/12 12:54:59;;;;;;;33.33;10.93;;;;;;;;;;5048517;28;20636;-69
2022/01/12 12:57:26;;;;;;;30.13;12.50;;;;;;;;;;5044879;28;20754;-68
2022/01/12 13:00:07;;;;;;;27.50;10.23;;;;;;;;;;5051313;28;20189;-69
2022/01/12 13:02:41;;;;;;;30.53;11.17;;;;;;;;;;5044170;28;20189;-68
2022/01/12 13:05:12;;;;;;;25.90;10.87;;;;;;;;;;5045782;28;20192;-69
2022/01/12 13:07:42;;;;;;;35.50;10.73;;;;;;;;;;5041881;28;20541;-68
2022/01/12 13:10:19;;;;;;;32.33;10.63;;;;;;;;;;5045935;28;20231;-69
2022/01/12 13:12:50;;;;;;;30.87;11.17;;;;;;;;;;5044397;28;20243;-68
2022/01/12 13:15:19;;;;;;;26.20;10.37;;;;;;;;;;5044448;28;20197;-68
2022/01/12 13:17:44;;;;;;;25.43;10.93;;;;;;;;;;5048715;28;20577;-68
2022/01/12 13:22:49;;;;;;;29.70;10.33;;;;;;;;;;5044431;28;20193;-68
2022/01/12 13:25:17;;;;;;;27.43;9.53;;;;;;;;;;5044237;28;20239;-68
2022/01/12 13:27:46;;;;;;;30.60;9.43;;;;;;;;;;5046768;28;20178;-68
2022/01/12 13:30:29;;;;;;;28.60;9.50;;;;;;;;;;5045097;28;20221;-69
2022/01/12 13:32:56;;;;;;;20.80;8.13;;;;;;;;;;5046638;28;20193;-68
2022/01/12 13:35:34;;;;;;;29.97;9.53;;;;;;;;;;5045837;28;20201;-68
2022/01/12 13:38:02;;;;;;;25.83;8.60;;;;;;;;;;5042770;28;20201;-68
2022/01/12 13:40:37;;;;;;;34.00;9.33;;;;;;;;;;5045028;28;20251;-68
2022/01/12 13:43:03;;;;;;;23.63;8.50;;;;;;;;;;5045298;28;20177;-68
2022/01/12 13:45:40;;;;;;;31.73;10.07;;;;;;;;;;5046869;28;20169;-68
2022/01/12 13:48:13;;;;;;;24.87;8.50;;;;;;;;;;5045757;28;20299;-69
2022/01/12 13:50:42;;;;;;;24.13;9.90;;;;;;;;;;5045876;28;20692;-68
2022/01/12 13:53:08;;;;;;;23.10;9.17;;;;;;;;;;5044143;28;20186;-68
2022/01/12 13:55:35;;;;;;;19.40;7.97;;;;;;;;;;5045739;28;20221;-68
2022/01/12 13:58:05;;;;;;;22.47;9.07;;;;;;;;;;5044172;28;20662;-67
2022/01/12 14:00:33;;;;;;;27.10;9.40;;;;;;;;;;5044516;28;20668;-68
2022/01/12 14:02:59;;;;;;;26.57;8.07;;;;;;;;;;5042230;28;20329;-68
2022/01/12 14:05:37;;;;;;;27.13;8.73;;;;;;;;;;5044786;28;20696;-67
2022/01/12 14:08:05;;;;;;;25.90;8.67;;;;;;;;;;5044590;28;20242;-69
2022/01/12 14:10:32;;;;;;;24.77;8.60;;;;;;;;;;5041066;28;20201;-68
2022/01/12 14:12:57;;;;;;;23.07;9.13;;;;;;;;;;5042057;28;20189;-68
2022/01/12 14:15:25;;;;;;;25.83;9.80;;;;;;;;;;5044666;28;20722;-68
2022/01/12 14:17:51;;;;;;;23.53;8.77;;;;;;;;;;5043866;28;20216;-68
2022/01/12 14:20:37;;;;;;;23.40;8.33;;;;;;;;;;5043108;28;20430;-68
2022/01/12 14:23:05;;;;;;;22.93;8.73;;;;;;;;;;5042617;28;20189;-68
2022/01/12 14:26:00;;;;;;;28.87;9.30;;;;;;;;;;5045359;28;20182;-68
2022/01/12 14:28:32;;;;;;;23.13;8.20;;;;;;;;;;5026721;28;20208;-68
2022/01/12 14:30:58;;;;;;;23.33;9.40;;;;;;;;;;5046830;28;20809;-68
2022/01/12 14:33:24;;;;;;;28.03;8.93;;;;;;;;;;5041988;28;20273;-68
2022/01/12 14:35:50;;;;;;;24.70;8.67;;;;;;;;;;5044590;28;20244;-67
2022/01/12 14:38:16;;;;;;;21.90;8.30;;;;;;;;;;5040876;28;20189;-67
2022/01/12 14:40:44;;;;;;;27.77;8.67;;;;;;;;;;5044195;28;20547;-68
2022/01/12 14:43:11;;;;;;;25.37;9.37;;;;;;;;;;5042859;28;20182;-68
2022/01/12 14:45:40;;;;;;;35.63;11.37;;;;;;;;;;5045564;28;20202;-68
2022/01/12 14:48:13;;;;;;;24.17;9.77;;;;;;;;;;5040175;28;20189;-68
2022/01/12 14:50:39;;;;;;;28.23;10.83;;;;;;;;;;5046172;28;20262;-69
2022/01/12 14:53:06;;;;;;;28.73;11.30;;;;;;;;;;5039897;28;20221;-68
2022/01/12 14:55:32;;;;;;;25.87;10.20;;;;;;;;;;5044146;28;20472;-68
2022/01/12 14:57:58;;;;;;;32.87;11.80;;;;;;;;;;5043413;28;20383;-68
2022/01/12 15:00:29;;;;;;;34.00;12.43;;;;;;;;;;5046500;28;20233;-68
2022/01/12 15:02:57;;;;;;;28.60;11.73;;;;;;;;;;5044629;28;20189;-68
2022/01/12 15:05:25;;;;;;;32.33;12.30;;;;;;;;;;5042425;28;20277;-67
2022/01/12 15:07:51;;;;;;;34.60;12.43;;;;;;;;;;5041884;28;20200;-68
2022/01/12 15:10:18;;;;;;;33.10;13.43;;;;;;;;;;5039083;28;20983;-67
2022/01/12 15:12:43;;;;;;;38.27;14.83;;;;;;;;;;5043654;28;20592;-67
2022/01/12 15:15:11;;;;;;;39.80;14.20;;;;;;;;;;5041619;28;20232;-67
2022/01/12 15:17:38;;;;;;;31.23;12.73;;;;;;;;;;5038262;28;20194;-67
2022/01/12 15:20:09;;;;;;;38.63;14.50;;;;;;;;;;5040358;28;20189;-68
2022/01/12 15:22:40;;;;;;;43.17;14.53;;;;;;;;;;5040391;28;20275;-68
2022/01/12 15:25:07;;;;;;;40.73;14.50;;;;;;;;;;5032383;28;20279;-68
2022/01/12 15:27:32;;;;;;;38.30;15.03;;;;;;;;;;5042257;28;20177;-68
2022/01/12 15:29:58;;;;;;;38.50;15.37;;;;;;;;;;5038161;28;20250;-68
2022/01/12 15:32:26;;;;;;;40.57;14.67;;;;;;;;;;5043017;28;20381;-68
2022/01/12 15:34:55;;;;;;;39.43;15.83;;;;;;;;;;5041805;28;20546;-68
2022/01/12 15:37:22;;;;;;;40.97;14.80;;;;;;;;;;5039573;28;20381;-68
2022/01/12 15:39:48;;;;;;;42.60;15.30;;;;;;;;;;5044939;28;20291;-68
2022/01/12 15:42:13;;;;;;;42.10;14.20;;;;;;;;;;5042834;28;20189;-68
2022/01/12 15:44:38;;;;;;;41.83;14.27;;;;;;;;;;5045319;28;20339;-68
2022/01/12 15:47:05;;;;;;;36.37;14.60;;;;;;;;;;5042075;28;20239;-68
2022/01/12 15:49:31;;;;;;;36.27;13.70;;;;;;;;;;5041256;28;20218;-68
2022/01/12 15:51:56;;;;;;;37.50;14.23;;;;;;;;;;5039798;28;20538;-68
2022/01/12 15:54:22;;;;;;;36.87;14.07;;;;;;;;;;5042519;28;20221;-68
2022/01/12 15:56:48;;;;;;;40.17;14.80;;;;;;;;;;5043207;28;20380;-68